sensor_id;sensor_type;location;lat;lon;timestamp;pressure;altitude;pressure_sealevel;temperature;humidity
73306;BME280;61530;51.158;0.880;2022-10-28T00:00:41;1011.49;;;14.75;49.0654
73306;BME280;61530;51.158;0.880;2022-10-28T00:01:47;1011.5;;;14.6875;49.7125
73306;BME280;61530;51.158;0.880;2022-10-28T00:02:53;1011.49;;;14.6875;48.3409
73306;BME280;61530;51.158;0.880;2022-10-28T00:04:00;1011.53;;;14.6875;48.5757
73306;BME280;61530;51.158;0.880;2022-10-28T00:05:06;1011.54;;;14.75;48.8582
73306;BME280;61530;51.158;0.880;2022-10-28T00:06:13;1011.53;;;14.75;49.1108
73306;BME280;61530;51.158;0.880;2022-10-28T00:07:12;1011.56;;;14.6875;49.018
73306;BME280;61530;51.158;0.880;2022-10-28T00:08:17;1011.56;;;14.75;49.08
73306;BME280;61530;51.158;0.880;2022-10-28T00:09:17;1011.6;;;14.6875;49.4495
73306;BME280;61530;51.158;0.880;2022-10-28T00:10:23;1011.56;;;14.6875;48.4033
73306;BME280;61530;51.158;0.880;2022-10-28T00:11:25;1011.59;;;14.6875;48.7531
73306;BME280;61530;51.158;0.880;2022-10-28T00:12:29;1011.57;;;14.6875;48.8109
73306;BME280;61530;51.158;0.880;2022-10-28T00:13:29;1011.62;;;14.625;49.3216
73306;BME280;61530;51.158;0.880;2022-10-28T00:14:35;1011.64;;;14.6875;49.1713
73306;BME280;61530;51.158;0.880;2022-10-28T00:15:35;1011.65;;;14.75;49.0105
73306;BME280;61530;51.158;0.880;2022-10-28T00:16:41;1011.62;;;14.75;49.389
73306;BME280;61530;51.158;0.880;2022-10-28T00:17:41;1011.6;;;14.75;49.147
73306;BME280;61530;51.158;0.880;2022-10-28T00:18:48;1011.61;;;14.6875;49.375
73306;BME280;61530;51.158;0.880;2022-10-28T00:19:53;1011.59;;;14.6875;49.5316
73306;BME280;61530;51.158;0.880;2022-10-28T00:21:00;1011.62;;;14.6875;49.7734
73306;BME280;61530;51.158;0.880;2022-10-28T00:21:59;1011.63;;;14.6875;48.9583
73306;BME280;61530;51.158;0.880;2022-10-28T00:23:05;1011.65;;;14.75;49.1715
73306;BME280;61530;51.158;0.880;2022-10-28T00:24:06;1011.68;;;14.75;49.6782
73306;BME280;61530;51.158;0.880;2022-10-28T00:25:11;1011.69;;;14.6875;48.9299
73306;BME280;61530;51.158;0.880;2022-10-28T00:26:19;1011.66;;;14.625;48.8836
73306;BME280;61530;51.158;0.880;2022-10-28T00:27:23;1011.68;;;14.625;49.1454
73306;BME280;61530;51.158;0.880;2022-10-28T00:28:23;1011.67;;;14.625;49.2705
73306;BME280;61530;51.158;0.880;2022-10-28T00:29:29;1011.7;;;14.6875;49.0974
73306;BME280;61530;51.158;0.880;2022-10-28T00:30:29;1011.75;;;14.6875;49.0211
73306;BME280;61530;51.158;0.880;2022-10-28T00:31:36;1011.75;;;14.6875;49.424
73306;BME280;61530;51.158;0.880;2022-10-28T00:32:41;1011.76;;;14.6875;49.4184
73306;BME280;61530;51.158;0.880;2022-10-28T00:33:48;1011.77;;;14.6875;48.9002
73306;BME280;61530;51.158;0.880;2022-10-28T00:34:53;1011.78;;;14.6875;49.1411
73306;BME280;61530;51.158;0.880;2022-10-28T00:36:09;1011.79;;;14.6875;49.7149
73306;BME280;61530;51.158;0.880;2022-10-28T00:37:00;1011.76;;;14.625;49.8053
73306;BME280;61530;51.158;0.880;2022-10-28T00:38:05;1011.75;;;14.625;49.3582
73306;BME280;61530;51.158;0.880;2022-10-28T00:39:14;1011.72;;;14.625;50.0818
73306;BME280;61530;51.158;0.880;2022-10-28T00:40:11;1011.72;;;14.6875;49.6862
73306;BME280;61530;51.158;0.880;2022-10-28T00:41:19;1011.73;;;14.625;49.4064
73306;BME280;61530;51.158;0.880;2022-10-28T00:42:23;1011.74;;;14.625;49.185
73306;BME280;61530;51.158;0.880;2022-10-28T00:43:34;1011.78;;;14.625;48.8692
73306;BME280;61530;51.158;0.880;2022-10-28T00:44:57;1011.82;;;14.625;49.2552
73306;BME280;61530;51.158;0.880;2022-10-28T00:45:23;1011.82;;;14.625;49.0946
73306;BME280;61530;51.158;0.880;2022-10-28T00:46:34;1011.88;;;14.625;49.2256
73306;BME280;61530;51.158;0.880;2022-10-28T00:47:43;1011.85;;;14.625;49.0162
73306;BME280;61530;51.158;0.880;2022-10-28T00:48:29;1011.85;;;14.625;49.8367
73306;BME280;61530;51.158;0.880;2022-10-28T00:49:35;1011.82;;;14.625;49.3723
73306;BME280;61530;51.158;0.880;2022-10-28T00:50:42;1011.8;;;14.625;48.8347
73306;BME280;61530;51.158;0.880;2022-10-28T00:51:43;1011.77;;;14.625;48.653
73306;BME280;61530;51.158;0.880;2022-10-28T00:52:43;1011.74;;;14.6875;48.613
73306;BME280;61530;51.158;0.880;2022-10-28T00:53:48;1011.74;;;14.625;49.571
73306;BME280;61530;51.158;0.880;2022-10-28T00:54:49;1011.74;;;14.6875;49.8644
73306;BME280;61530;51.158;0.880;2022-10-28T00:55:53;1011.71;;;14.625;49.61
73306;BME280;61530;51.158;0.880;2022-10-28T00:57:03;1011.7;;;14.625;49.5274
73306;BME280;61530;51.158;0.880;2022-10-28T00:58:07;1011.66;;;14.5625;50.1078
73306;BME280;61530;51.158;0.880;2022-10-28T00:59:17;1011.6;;;14.625;49.7356
73306;BME280;61530;51.158;0.880;2022-10-28T01:00:13;1011.57;;;14.625;50.022
73306;BME280;61530;51.158;0.880;2022-10-28T01:01:11;1011.49;;;14.5625;49.7989
73306;BME280;61530;51.158;0.880;2022-10-28T01:02:17;1011.46;;;14.5625;49.5208
73306;BME280;61530;51.158;0.880;2022-10-28T01:03:24;1011.43;;;14.625;49.0256
73306;BME280;61530;51.158;0.880;2022-10-28T01:04:24;1011.4;;;14.5625;49.383
73306;BME280;61530;51.158;0.880;2022-10-28T01:05:32;1011.42;;;14.5;49.0623
73306;BME280;61530;51.158;0.880;2022-10-28T01:06:35;1011.42;;;14.5625;49.7395
73306;BME280;61530;51.158;0.880;2022-10-28T01:07:35;1011.43;;;14.5;49.4658
73306;BME280;61530;51.158;0.880;2022-10-28T01:08:41;1011.44;;;14.625;49.6156
73306;BME280;61530;51.158;0.880;2022-10-28T01:09:48;1011.43;;;14.5625;49.6222
73306;BME280;61530;51.158;0.880;2022-10-28T01:11:07;1011.42;;;14.625;49.0658
73306;BME280;61530;51.158;0.880;2022-10-28T01:11:59;1011.36;;;14.625;49.2717
73306;BME280;61530;51.158;0.880;2022-10-28T01:13:02;1011.37;;;14.5625;48.8499
73306;BME280;61530;51.158;0.880;2022-10-28T01:14:15;1011.4;;;14.5625;49.5404
73306;BME280;61530;51.158;0.880;2022-10-28T01:15:11;1011.38;;;14.625;49.0356
73306;BME280;61530;51.158;0.880;2022-10-28T01:16:21;1011.39;;;14.5625;49.0073
73306;BME280;61530;51.158;0.880;2022-10-28T01:17:30;1011.39;;;14.5625;49.1324
73306;BME280;61530;51.158;0.880;2022-10-28T01:18:30;1011.37;;;14.5625;49.097
73306;BME280;61530;51.158;0.880;2022-10-28T01:19:50;1011.36;;;14.5625;49.5344
73306;BME280;61530;51.158;0.880;2022-10-28T01:20:57;1011.39;;;14.5625;48.5483
73306;BME280;61530;51.158;0.880;2022-10-28T01:21:48;1011.4;;;14.5625;48.7781
73306;BME280;61530;51.158;0.880;2022-10-28T01:22:33;1011.43;;;14.5625;49.1621
73306;BME280;61530;51.158;0.880;2022-10-28T01:23:43;1011.49;;;14.625;48.674
73306;BME280;61530;51.158;0.880;2022-10-28T01:24:52;1011.48;;;14.625;48.7997
73306;BME280;61530;51.158;0.880;2022-10-28T01:25:58;1011.48;;;14.5;48.9939
73306;BME280;61530;51.158;0.880;2022-10-28T01:26:59;1011.5;;;14.5;48.9837
73306;BME280;61530;51.158;0.880;2022-10-28T01:30:00;1011.48;;;14.5;48.9918
73306;BME280;61530;51.158;0.880;2022-10-28T01:31:18;1011.5;;;14.4375;48.9688
73306;BME280;61530;51.158;0.880;2022-10-28T01:32:25;1011.47;;;14.5;49.836
73306;BME280;61530;51.158;0.880;2022-10-28T01:33:20;1011.42;;;14.625;49.3366
73306;BME280;61530;51.158;0.880;2022-10-28T01:34:28;1011.41;;;14.625;49.2497
73306;BME280;61530;51.158;0.880;2022-10-28T01:35:26;1011.38;;;14.5625;49.8011
73306;BME280;61530;51.158;0.880;2022-10-28T01:36:34;1011.33;;;14.4375;50.4
73306;BME280;61530;51.158;0.880;2022-10-28T01:37:32;1011.33;;;14.5;49.6448
73306;BME280;61530;51.158;0.880;2022-10-28T01:38:38;1011.32;;;14.5;49.0026
73306;BME280;61530;51.158;0.880;2022-10-28T01:39:39;1011.3;;;14.5625;49.0142
73306;BME280;61530;51.158;0.880;2022-10-28T01:40:45;1011.27;;;14.5;48.5577
73306;BME280;61530;51.158;0.880;2022-10-28T01:41:48;1011.25;;;14.5;48.5929
73306;BME280;61530;51.158;0.880;2022-10-28T01:42:50;1011.24;;;14.5625;49.3925
73306;BME280;61530;51.158;0.880;2022-10-28T01:43:47;1011.21;;;14.5;49.0479
73306;BME280;61530;51.158;0.880;2022-10-28T01:44:56;1011.19;;;14.5;48.9967
73306;BME280;61530;51.158;0.880;2022-10-28T01:45:57;1011.12;;;14.5625;48.8993
73306;BME280;61530;51.158;0.880;2022-10-28T01:47:01;1011.08;;;14.5;48.5316
73306;BME280;61530;51.158;0.880;2022-10-28T01:48:00;1011.05;;;14.5;48.1695
73306;BME280;61530;51.158;0.880;2022-10-28T01:49:09;1011.02;;;14.5625;49.1496
73306;BME280;61530;51.158;0.880;2022-10-28T01:50:23;1011.01;;;14.5;49.2294
73306;BME280;61530;51.158;0.880;2022-10-28T01:51:20;1011.0;;;14.4375;49.7521
73306;BME280;61530;51.158;0.880;2022-10-28T01:52:19;1010.98;;;14.5;47.9246
73306;BME280;61530;51.158;0.880;2022-10-28T01:53:26;1010.96;;;14.5625;48.6415
73306;BME280;61530;51.158;0.880;2022-10-28T01:54:24;1010.95;;;14.5625;48.7497
73306;BME280;61530;51.158;0.880;2022-10-28T01:55:30;1010.95;;;14.5;48.235
73306;BME280;61530;51.158;0.880;2022-10-28T01:56:30;1010.95;;;14.5;48.3604
73306;BME280;61530;51.158;0.880;2022-10-28T01:57:29;1010.97;;;14.5;47.8143
73306;BME280;61530;51.158;0.880;2022-10-28T01:58:35;1010.95;;;14.5625;48.1324
73306;BME280;61530;51.158;0.880;2022-10-28T01:59:34;1010.97;;;14.5;48.8513
73306;BME280;61530;51.158;0.880;2022-10-28T02:00:40;1010.96;;;14.5;48.4834
73306;BME280;61530;51.158;0.880;2022-10-28T02:01:39;1011.0;;;14.5;48.7308
73306;BME280;61530;51.158;0.880;2022-10-28T02:02:47;1011.02;;;14.5;48.7482
73306;BME280;61530;51.158;0.880;2022-10-28T02:03:46;1011.01;;;14.5;48.8506
73306;BME280;61530;51.158;0.880;2022-10-28T02:05:00;1011.04;;;14.5;48.5003
73306;BME280;61530;51.158;0.880;2022-10-28T02:05:53;1011.08;;;14.4375;48.9073
73306;BME280;61530;51.158;0.880;2022-10-28T02:06:58;1011.12;;;14.5;48.7231
73306;BME280;61530;51.158;0.880;2022-10-28T02:08:11;1011.17;;;14.375;47.971
73306;BME280;61530;51.158;0.880;2022-10-28T02:09:17;1011.17;;;14.375;49.137
73306;BME280;61530;51.158;0.880;2022-10-28T02:10:15;1011.17;;;14.4375;49.1703
73306;BME280;61530;51.158;0.880;2022-10-28T02:11:29;1011.14;;;14.4375;48.3676
73306;BME280;61530;51.158;0.880;2022-10-28T02:12:21;1011.14;;;14.4375;49.6056
73306;BME280;61530;51.158;0.880;2022-10-28T02:13:27;1011.16;;;14.375;48.6352
73306;BME280;61530;51.158;0.880;2022-10-28T02:14:32;1011.18;;;14.5;48.9384
73306;BME280;61530;51.158;0.880;2022-10-28T02:15:38;1011.14;;;14.4375;48.9489
73306;BME280;61530;51.158;0.880;2022-10-28T02:16:40;1011.15;;;14.375;49.1785
73306;BME280;61530;51.158;0.880;2022-10-28T02:17:53;1011.12;;;14.4375;49.2197
73306;BME280;61530;51.158;0.880;2022-10-28T02:18:44;1011.09;;;14.4375;48.3984
73306;BME280;61530;51.158;0.880;2022-10-28T02:19:49;1011.06;;;14.4375;49.2748
73306;BME280;61530;51.158;0.880;2022-10-28T02:20:50;1011.02;;;14.4375;48.8552
73306;BME280;61530;51.158;0.880;2022-10-28T02:21:58;1011.02;;;14.4375;48.2726
73306;BME280;61530;51.158;0.880;2022-10-28T02:22:56;1011.03;;;14.375;49.0921
73306;BME280;61530;51.158;0.880;2022-10-28T02:24:03;1010.98;;;14.3125;48.6373
73306;BME280;61530;51.158;0.880;2022-10-28T02:25:04;1010.97;;;14.4375;48.3458
73306;BME280;61530;51.158;0.880;2022-10-28T02:26:00;1010.97;;;14.4375;49.473
73306;BME280;61530;51.158;0.880;2022-10-28T02:27:05;1010.94;;;14.375;48.8571
73306;BME280;61530;51.158;0.880;2022-10-28T02:28:06;1010.93;;;14.375;48.7101
73306;BME280;61530;51.158;0.880;2022-10-28T02:29:06;1010.91;;;14.4375;48.6748
73306;BME280;61530;51.158;0.880;2022-10-28T02:30:07;1010.87;;;14.4375;49.0878
73306;BME280;61530;51.158;0.880;2022-10-28T02:31:19;1010.85;;;14.4375;49.3509
73306;BME280;61530;51.158;0.880;2022-10-28T02:32:14;1010.8;;;14.375;48.548
73306;BME280;61530;51.158;0.880;2022-10-28T02:33:18;1010.83;;;14.375;49.0301
73306;BME280;61530;51.158;0.880;2022-10-28T02:34:19;1010.85;;;14.4375;48.2898
73306;BME280;61530;51.158;0.880;2022-10-28T02:35:25;1010.89;;;14.4375;48.2103
73306;BME280;61530;51.158;0.880;2022-10-28T02:36:23;1010.91;;;14.375;48.2916
73306;BME280;61530;51.158;0.880;2022-10-28T02:37:24;1010.91;;;14.3125;48.6053
73306;BME280;61530;51.158;0.880;2022-10-28T02:38:25;1010.88;;;14.375;48.6066
73306;BME280;61530;51.158;0.880;2022-10-28T02:39:31;1010.85;;;14.4375;48.7839
73306;BME280;61530;51.158;0.880;2022-10-28T02:40:28;1010.79;;;14.4375;48.8344
73306;BME280;61530;51.158;0.880;2022-10-28T02:41:32;1010.77;;;14.375;49.2284
73306;BME280;61530;51.158;0.880;2022-10-28T02:42:36;1010.77;;;14.375;48.5599
73306;BME280;61530;51.158;0.880;2022-10-28T02:43:35;1010.77;;;14.375;48.7118
73306;BME280;61530;51.158;0.880;2022-10-28T02:44:43;1010.74;;;14.375;49.1244
73306;BME280;61530;51.158;0.880;2022-10-28T02:45:48;1010.75;;;14.375;48.5683
73306;BME280;61530;51.158;0.880;2022-10-28T02:46:53;1010.69;;;14.375;48.9413
73306;BME280;61530;51.158;0.880;2022-10-28T02:47:55;1010.67;;;14.4375;48.9758
73306;BME280;61530;51.158;0.880;2022-10-28T02:48:59;1010.62;;;14.375;49.0376
73306;BME280;61530;51.158;0.880;2022-10-28T02:50:00;1010.61;;;14.3125;48.5959
73306;BME280;61530;51.158;0.880;2022-10-28T02:51:08;1010.62;;;14.375;48.4614
73306;BME280;61530;51.158;0.880;2022-10-28T02:52:05;1010.62;;;14.4375;49.4722
73306;BME280;61530;51.158;0.880;2022-10-28T02:53:14;1010.59;;;14.375;48.4638
73306;BME280;61530;51.158;0.880;2022-10-28T02:54:12;1010.58;;;14.4375;48.1077
73306;BME280;61530;51.158;0.880;2022-10-28T02:55:15;1010.58;;;14.375;49.2196
73306;BME280;61530;51.158;0.880;2022-10-28T02:56:16;1010.56;;;14.4375;49.0995
73306;BME280;61530;51.158;0.880;2022-10-28T02:57:23;1010.57;;;14.375;49.019
73306;BME280;61530;51.158;0.880;2022-10-28T02:58:21;1010.57;;;14.4375;48.6285
73306;BME280;61530;51.158;0.880;2022-10-28T02:59:28;1010.56;;;14.375;49.3388
73306;BME280;61530;51.158;0.880;2022-10-28T03:00:27;1010.55;;;14.4375;49.1337
73306;BME280;61530;51.158;0.880;2022-10-28T03:01:28;1010.52;;;14.3125;49.0819
73306;BME280;61530;51.158;0.880;2022-10-28T03:02:33;1010.56;;;14.375;48.887
73306;BME280;61530;51.158;0.880;2022-10-28T03:03:33;1010.56;;;14.375;48.8775
73306;BME280;61530;51.158;0.880;2022-10-28T03:04:39;1010.55;;;14.4375;48.9045
73306;BME280;61530;51.158;0.880;2022-10-28T03:05:39;1010.6;;;14.375;48.6632
73306;BME280;61530;51.158;0.880;2022-10-28T03:06:45;1010.63;;;14.375;49.0308
73306;BME280;61530;51.158;0.880;2022-10-28T03:07:45;1010.61;;;14.375;48.9208
73306;BME280;61530;51.158;0.880;2022-10-28T03:08:51;1010.61;;;14.375;48.9144
73306;BME280;61530;51.158;0.880;2022-10-28T03:09:57;1010.63;;;14.375;49.1087
73306;BME280;61530;51.158;0.880;2022-10-28T03:11:04;1010.61;;;14.375;49.4614
73306;BME280;61530;51.158;0.880;2022-10-28T03:12:04;1010.63;;;14.375;49.0683
73306;BME280;61530;51.158;0.880;2022-10-28T03:13:09;1010.66;;;14.4375;49.3033
73306;BME280;61530;51.158;0.880;2022-10-28T03:14:16;1010.68;;;14.375;48.7433
73306;BME280;61530;51.158;0.880;2022-10-28T03:15:21;1010.68;;;14.375;48.8127
73306;BME280;61530;51.158;0.880;2022-10-28T03:16:21;1010.67;;;14.3125;48.4501
73306;BME280;61530;51.158;0.880;2022-10-28T03:17:28;1010.63;;;14.3125;48.4551
73306;BME280;61530;51.158;0.880;2022-10-28T03:18:27;1010.63;;;14.375;48.925
73306;BME280;61530;51.158;0.880;2022-10-28T03:19:33;1010.62;;;14.3125;48.8902
73306;BME280;61530;51.158;0.880;2022-10-28T03:20:40;1010.63;;;14.375;49.1648
73306;BME280;61530;51.158;0.880;2022-10-28T03:21:45;1010.57;;;14.375;49.1167
73306;BME280;61530;51.158;0.880;2022-10-28T03:22:45;1010.53;;;14.375;48.8588
73306;BME280;61530;51.158;0.880;2022-10-28T03:23:52;1010.53;;;14.375;49.0613
73306;BME280;61530;51.158;0.880;2022-10-28T03:24:51;1010.51;;;14.3125;49.1422
73306;BME280;61530;51.158;0.880;2022-10-28T03:25:57;1010.49;;;14.375;48.8542
73306;BME280;61530;51.158;0.880;2022-10-28T03:26:57;1010.46;;;14.3125;48.5505
73306;BME280;61530;51.158;0.880;2022-10-28T03:28:04;1010.43;;;14.25;48.8135
73306;BME280;61530;51.158;0.880;2022-10-28T03:29:09;1010.46;;;14.3125;49.3913
73306;BME280;61530;51.158;0.880;2022-10-28T03:30:16;1010.47;;;14.375;49.199
73306;BME280;61530;51.158;0.880;2022-10-28T03:31:21;1010.45;;;14.3125;48.8999
73306;BME280;61530;51.158;0.880;2022-10-28T03:32:21;1010.4;;;14.3125;48.4286
73306;BME280;61530;51.158;0.880;2022-10-28T03:33:28;1010.36;;;14.3125;48.8582
73306;BME280;61530;51.158;0.880;2022-10-28T03:34:33;1010.33;;;14.3125;48.9332
73306;BME280;61530;51.158;0.880;2022-10-28T03:35:33;1010.3;;;14.3125;49.2722
73306;BME280;61530;51.158;0.880;2022-10-28T03:36:40;1010.24;;;14.3125;48.6812
73306;BME280;61530;51.158;0.880;2022-10-28T03:37:45;1010.18;;;14.3125;49.9078
73306;BME280;61530;51.158;0.880;2022-10-28T03:38:45;1010.09;;;14.3125;48.9667
73306;BME280;61530;51.158;0.880;2022-10-28T03:39:45;1010.02;;;14.3125;48.8753
73306;BME280;61530;51.158;0.880;2022-10-28T03:40:51;1010.01;;;14.3125;48.3812
73306;BME280;61530;51.158;0.880;2022-10-28T03:41:57;1010.01;;;14.3125;49.1861
73306;BME280;61530;51.158;0.880;2022-10-28T03:43:03;1009.98;;;14.375;48.9399
73306;BME280;61530;51.158;0.880;2022-10-28T03:44:04;1009.95;;;14.3125;48.3631
73306;BME280;61530;51.158;0.880;2022-10-28T03:45:10;1009.96;;;14.3125;48.0945
73306;BME280;61530;51.158;0.880;2022-10-28T03:46:16;1009.93;;;14.25;47.5557
73306;BME280;61530;51.158;0.880;2022-10-28T03:47:21;1009.9;;;14.25;48.2786
73306;BME280;61530;51.158;0.880;2022-10-28T03:48:21;1009.87;;;14.3125;48.5415
73306;BME280;61530;51.158;0.880;2022-10-28T03:49:28;1009.87;;;14.25;48.8457
73306;BME280;61530;51.158;0.880;2022-10-28T03:50:33;1009.88;;;14.1875;49.0756
73306;BME280;61530;51.158;0.880;2022-10-28T03:51:33;1009.86;;;14.25;48.9375
73306;BME280;61530;51.158;0.880;2022-10-28T03:52:33;1009.88;;;14.3125;48.862
73306;BME280;61530;51.158;0.880;2022-10-28T03:53:39;1009.9;;;14.25;48.0031
73306;BME280;61530;51.158;0.880;2022-10-28T03:54:45;1009.9;;;14.3125;48.4895
73306;BME280;61530;51.158;0.880;2022-10-28T03:55:52;1009.85;;;14.3125;49.1557
73306;BME280;61530;51.158;0.880;2022-10-28T03:56:51;1009.79;;;14.3125;48.7011
73306;BME280;61530;51.158;0.880;2022-10-28T03:57:59;1009.72;;;14.3125;48.5544
73306;BME280;61530;51.158;0.880;2022-10-28T03:59:04;1009.67;;;14.25;48.4787
73306;BME280;61530;51.158;0.880;2022-10-28T04:00:09;1009.61;;;14.25;49.2649
73306;BME280;61530;51.158;0.880;2022-10-28T04:01:09;1009.59;;;14.25;48.4637
73306;BME280;61530;51.158;0.880;2022-10-28T04:02:15;1009.57;;;14.25;49.0845
73306;BME280;61530;51.158;0.880;2022-10-28T04:03:16;1009.56;;;14.25;49.2847
73306;BME280;61530;51.158;0.880;2022-10-28T04:04:21;1009.55;;;14.3125;48.7774
73306;BME280;61530;51.158;0.880;2022-10-28T04:05:28;1009.59;;;14.3125;48.8055
73306;BME280;61530;51.158;0.880;2022-10-28T04:06:33;1009.62;;;14.3125;48.6508
73306;BME280;61530;51.158;0.880;2022-10-28T04:07:34;1009.65;;;14.25;48.7492
73306;BME280;61530;51.158;0.880;2022-10-28T04:08:39;1009.64;;;14.3125;48.8849
73306;BME280;61530;51.158;0.880;2022-10-28T04:09:39;1009.67;;;14.3125;48.5455
73306;BME280;61530;51.158;0.880;2022-10-28T04:10:45;1009.68;;;14.25;48.512
73306;BME280;61530;51.158;0.880;2022-10-28T04:11:52;1009.67;;;14.3125;48.5905
73306;BME280;61530;51.158;0.880;2022-10-28T04:12:59;1009.68;;;14.25;48.208
73306;BME280;61530;51.158;0.880;2022-10-28T04:13:57;1009.71;;;14.25;48.4082
73306;BME280;61530;51.158;0.880;2022-10-28T04:15:04;1009.73;;;14.3125;48.6951
73306;BME280;61530;51.158;0.880;2022-10-28T04:16:04;1009.75;;;14.25;48.7007
73306;BME280;61530;51.158;0.880;2022-10-28T04:17:09;1009.74;;;14.3125;48.1664
73306;BME280;61530;51.158;0.880;2022-10-28T04:18:16;1009.78;;;14.25;49.0441
73306;BME280;61530;51.158;0.880;2022-10-28T04:19:21;1009.78;;;14.25;49.1689
73306;BME280;61530;51.158;0.880;2022-10-28T04:20:21;1009.8;;;14.25;49.4331
73306;BME280;61530;51.158;0.880;2022-10-28T04:21:27;1009.79;;;14.3125;48.7926
73306;BME280;61530;51.158;0.880;2022-10-28T04:22:28;1009.8;;;14.25;49.2025
73306;BME280;61530;51.158;0.880;2022-10-28T04:23:33;1009.75;;;14.3125;48.7509
73306;BME280;61530;51.158;0.880;2022-10-28T04:24:33;1009.74;;;14.25;48.7719
73306;BME280;61530;51.158;0.880;2022-10-28T04:25:39;1009.7;;;14.25;49.2771
73306;BME280;61530;51.158;0.880;2022-10-28T04:26:45;1009.67;;;14.25;48.806
73306;BME280;61530;51.158;0.880;2022-10-28T04:27:52;1009.68;;;14.1875;49.0111
73306;BME280;61530;51.158;0.880;2022-10-28T04:28:51;1009.68;;;14.25;49.2985
73306;BME280;61530;51.158;0.880;2022-10-28T04:29:57;1009.68;;;14.1875;49.7336
73306;BME280;61530;51.158;0.880;2022-10-28T04:30:57;1009.7;;;14.25;49.8541
73306;BME280;61530;51.158;0.880;2022-10-28T04:32:04;1009.7;;;14.25;49.8194
73306;BME280;61530;51.158;0.880;2022-10-28T04:33:11;1009.68;;;14.25;49.7811
73306;BME280;61530;51.158;0.880;2022-10-28T04:34:15;1009.68;;;14.25;49.9187
73306;BME280;61530;51.158;0.880;2022-10-28T04:35:16;1009.66;;;14.1875;49.8749
73306;BME280;61530;51.158;0.880;2022-10-28T04:36:21;1009.72;;;14.1875;51.9007
73306;BME280;61530;51.158;0.880;2022-10-28T04:37:28;1009.73;;;14.1875;50.9847
73306;BME280;61530;51.158;0.880;2022-10-28T04:38:33;1009.76;;;14.1875;50.0376
73306;BME280;61530;51.158;0.880;2022-10-28T04:39:33;1009.79;;;14.25;50.4716
73306;BME280;61530;51.158;0.880;2022-10-28T04:40:39;1009.79;;;14.1875;47.8941
73306;BME280;61530;51.158;0.880;2022-10-28T04:41:39;1009.76;;;14.1875;52.695
73306;BME280;61530;51.158;0.880;2022-10-28T04:42:45;1009.76;;;14.3125;53.7514
73306;BME280;61530;51.158;0.880;2022-10-28T04:43:45;1009.76;;;14.25;52.3679
73306;BME280;61530;51.158;0.880;2022-10-28T04:44:51;1009.76;;;14.3125;51.2537
73306;BME280;61530;51.158;0.880;2022-10-28T04:45:57;1009.78;;;14.375;50.8105
73306;BME280;61530;51.158;0.880;2022-10-28T04:47:03;1009.72;;;14.3125;52.8347
73306;BME280;61530;51.158;0.880;2022-10-28T04:48:04;1009.69;;;14.3125;52.2492
73306;BME280;61530;51.158;0.880;2022-10-28T04:49:09;1009.69;;;14.375;50.3832
73306;BME280;61530;51.158;0.880;2022-10-28T04:50:09;1009.74;;;14.375;52.8057
73306;BME280;61530;51.158;0.880;2022-10-28T04:51:15;1009.77;;;14.4375;49.5932
73306;BME280;61530;51.158;0.880;2022-10-28T04:52:21;1009.78;;;14.4375;52.1008
73306;BME280;61530;51.158;0.880;2022-10-28T04:53:28;1009.85;;;14.5;52.6586
73306;BME280;61530;51.158;0.880;2022-10-28T04:54:27;1009.92;;;14.4375;52.595
73306;BME280;61530;51.158;0.880;2022-10-28T04:55:33;1009.93;;;14.5;51.4332
73306;BME280;61530;51.158;0.880;2022-10-28T04:56:40;1009.9;;;14.5;51.7971
73306;BME280;61530;51.158;0.880;2022-10-28T04:57:52;1009.92;;;14.5625;51.0888
73306;BME280;61530;51.158;0.880;2022-10-28T04:58:46;1009.95;;;14.5;50.2158
73306;BME280;61530;51.158;0.880;2022-10-28T04:59:51;1009.94;;;14.5;50.1406
73306;BME280;61530;51.158;0.880;2022-10-28T05:00:51;1009.9;;;14.5;51.8777
73306;BME280;61530;51.158;0.880;2022-10-28T05:01:57;1009.89;;;14.5625;50.1694
73306;BME280;61530;51.158;0.880;2022-10-28T05:03:03;1009.87;;;14.625;51.6794
73306;BME280;61530;51.158;0.880;2022-10-28T05:04:09;1009.87;;;14.5625;50.4252
73306;BME280;61530;51.158;0.880;2022-10-28T05:05:09;1009.87;;;14.5;52.0213
73306;BME280;61530;51.158;0.880;2022-10-28T05:06:15;1009.87;;;14.5625;50.8024
73306;BME280;61530;51.158;0.880;2022-10-28T05:07:15;1009.9;;;14.5625;50.0824
73306;BME280;61530;51.158;0.880;2022-10-28T05:08:21;1009.86;;;14.625;50.0608
73306;BME280;61530;51.158;0.880;2022-10-28T05:09:21;1009.85;;;14.5625;50.4382
73306;BME280;61530;51.158;0.880;2022-10-28T05:10:27;1009.85;;;14.5625;50.1521
73306;BME280;61530;51.158;0.880;2022-10-28T05:11:27;1009.85;;;14.625;49.8441
73306;BME280;61530;51.158;0.880;2022-10-28T05:12:33;1009.8;;;14.5625;49.94
73306;BME280;61530;51.158;0.880;2022-10-28T05:13:33;1009.81;;;14.5625;51.2961
73306;BME280;61530;51.158;0.880;2022-10-28T05:14:39;1009.77;;;14.625;51.1017
73306;BME280;61530;51.158;0.880;2022-10-28T05:15:39;1009.71;;;14.625;50.717
73306;BME280;61530;51.158;0.880;2022-10-28T05:16:45;1009.69;;;14.625;50.2677
73306;BME280;61530;51.158;0.880;2022-10-28T05:17:46;1009.64;;;14.625;51.1164
73306;BME280;61530;51.158;0.880;2022-10-28T05:18:51;1009.64;;;14.625;48.4649
73306;BME280;61530;51.158;0.880;2022-10-28T05:19:57;1009.64;;;14.6875;49.8997
73306;BME280;61530;51.158;0.880;2022-10-28T05:21:06;1009.61;;;14.625;48.9265
73306;BME280;61530;51.158;0.880;2022-10-28T05:22:11;1009.6;;;14.5625;51.5189
73306;BME280;61530;51.158;0.880;2022-10-28T05:23:17;1009.59;;;14.6875;49.3048
73306;BME280;61530;51.158;0.880;2022-10-28T05:24:17;1009.6;;;14.6875;50.4144
73306;BME280;61530;51.158;0.880;2022-10-28T05:25:23;1009.57;;;14.6875;50.6719
73306;BME280;61530;51.158;0.880;2022-10-28T05:26:23;1009.57;;;14.625;49.6528
73306;BME280;61530;51.158;0.880;2022-10-28T05:27:30;1009.55;;;14.6875;50.263
73306;BME280;61530;51.158;0.880;2022-10-28T05:28:35;1009.55;;;14.625;50.8215
73306;BME280;61530;51.158;0.880;2022-10-28T05:29:41;1009.55;;;14.625;49.776
73306;BME280;61530;51.158;0.880;2022-10-28T05:30:41;1009.53;;;14.6875;49.728